Latest Coastal Weather Observations for Point Stuart

IDD60701

Issued at 6:05 pm CST Tuesday 29 July 2014 (issued every 10 minutes, with the page automatically refreshed every 10 minutes)

About coastal observations | Map of coastal stations | Coastal observations for NT | Marine services | Other Formats
Station Details ID: 014254 Name: POINT STUART Lat: -12.24 Lon: 131.88 Height: 1.0 m
Data from the previous 72 hours. | See also: Recent months for locations in Northern Territory
Date/Time
CST
Temp

°C
Wind Pressure Rain
since 9am
mm
Weather Cloud Vis
km
Sea
Height
m
Swell
Dir
 
Speed
knots
Gust
knots
hPa Trend Height
m
Period
s
Dir
29/06:00pm 28.3 N 5 7 1012.6 - 0.0 - - - - - - -
29/05:30pm 29.2 N 6 9 1012.4 - 0.0 - - - - - - -
29/05:00pm 29.7 N 7 10 1012.3 - 0.0 - - - - - - -
29/04:30pm 30.6 NNE 8 13 1012.2 - 0.0 - - - - - - -
29/04:00pm 30.7 NNE 9 13 1012.1 - 0.0 - - - - - - -
29/03:30pm 30.9 NE 11 17 1012.2 - 0.0 - - - - - - -
29/03:00pm 30.9 NE 13 19 1012.4 - 0.0 - - - - - - -
29/02:30pm 31.4 NE 11 17 1012.7 - 0.0 - - - - - - -
29/02:00pm 31.2 NE 12 16 1013.2 - 0.0 - - - - - - -
29/01:30pm 30.3 NE 12 17 1013.6 - 0.0 - - - - - - -
29/01:00pm 30.1 NE 13 18 1014.2 - 0.0 - - - - - - -
29/12:30pm 30.1 NE 13 18 1014.8 - 0.0 - - - - - - -
29/12:00pm 30.5 NE 11 17 1015.2 - 0.0 - - - - - - -
29/11:30am 29.6 ENE 10 15 1015.6 - 0.0 - - - - - - -
29/11:00am 29.3 E 10 13 1016.0 - 0.0 - - - - - - -
29/10:30am 28.3 E 12 15 1016.3 - 0.0 - - - - - - -
29/10:00am 27.3 E 12 16 1016.3 - 0.0 - - - - - - -
29/09:30am 27.1 E 11 15 1016.4 - 0.0 - - - - - - -
29/09:00am 25.1 E 9 13 1016.5 - 0.0 - - - - - - -
29/08:30am 23.0 ESE 7 9 1016.4 - 0.0 - - - - - - -
29/08:00am 21.5 SE 4 6 1016.3 - 0.0 - - - - - - -
29/07:30am 20.0 NE 1 4 1016.0 - 0.0 - - - - - - -
29/07:00am 19.3 SE 3 4 1015.8 - 0.0 - - - - - - -
29/06:30am 19.7 CALM 0 0 1015.6 - 0.0 - - - - - - -
29/06:00am 19.9 SE 2 4 1015.2 - 0.0 - - - - - - -
29/05:30am 20.0 SE 4 4 1014.9 - 0.0 - - - - - - -
29/05:00am 20.2 ESE 3 4 1014.7 - 0.0 - - - - - - -
29/04:30am 20.4 CALM 0 0 1014.5 - 0.0 - - - - - - -
29/04:00am 20.5 CALM 0 0 1014.4 - 0.0 - - - - - - -
29/03:30am 21.1 SSE 1 3 1014.4 - 0.0 - - - - - - -
29/03:00am 21.3 S 6 7 1014.5 - 0.0 - - - - - - -
29/02:30am 21.2 SSW 3 4 1014.7 - 0.0 - - - - - - -
29/02:00am 21.9 S 3 5 1014.8 - 0.0 - - - - - - -
29/01:30am 23.7 E 5 6 1014.7 - 0.0 - - - - - - -
29/01:00am 24.1 ENE 6 7 1014.8 - 0.0 - - - - - - -
29/12:30am 24.5 ENE 7 10 1014.8 - 0.0 - - - - - - -
29/12:00am 24.8 NE 8 12 1014.8 - 0.0 - - - - - - -
 
Date/Time
CST
Temp

°C
Wind Pressure Rain
since 9am
mm
Weather Cloud Vis
km
Sea
Height
m
Swell
Dir
 
Speed
knots
Gust
knots
hPa Trend Height
m
Period
s
Dir
28/11:30pm 24.9 ENE 10 13 1014.9 - 0.0 - - - - - - -
28/11:00pm 24.7 NE 7 9 1014.8 - 0.0 - - - - - - -
28/10:30pm 24.7 NNE 5 7 1014.7 - 0.0 - - - - - - -
28/10:00pm 25.1 NNE 6 8 1014.6 - 0.0 - - - - - - -
28/09:30pm 25.5 NNE 7 10 1014.5 - 0.0 - - - - - - -
28/09:00pm 25.6 NNE 5 8 1014.4 - 0.0 - - - - - - -
28/08:30pm 25.0 N 4 6 1014.1 - 0.0 - - - - - - -
28/08:00pm 25.0 N 4 5 1013.8 - 0.0 - - - - - - -
28/07:30pm 25.1 N 4 7 1013.5 - 0.0 - - - - - - -
28/07:00pm 25.6 N 4 7 1013.2 - 0.0 - - - - - - -
28/06:30pm 26.5 N 4 7 1012.8 - 0.0 - - - - - - -
28/06:00pm 27.9 NNW 5 7 1012.5 - 0.0 - - - - - - -
28/05:30pm 29.3 NNW 5 7 1012.1 - 0.0 - - - - - - -
28/05:00pm 29.5 N 5 9 1012.0 - 0.0 - - - - - - -
28/04:30pm 30.4 N 6 8 1011.8 - 0.0 - - - - - - -
28/04:00pm 30.3 N 5 9 1011.9 - 0.0 - - - - - - -
28/03:30pm 30.7 NNE 7 13 1012.1 - 0.0 - - - - - - -
28/03:00pm 30.2 NNE 9 12 1012.4 - 0.0 - - - - - - -
28/02:30pm 30.8 NNE 9 14 1012.9 - 0.0 - - - - - - -
28/02:00pm 30.5 NE 10 14 1013.4 - 0.0 - - - - - - -
28/01:30pm 30.0 ENE 10 14 1013.9 - 0.0 - - - - - - -
28/01:00pm 30.3 NE 10 13 1014.3 - 0.0 - - - - - - -
28/12:30pm 30.6 NE 10 14 1014.8 - 0.0 - - - - - - -
28/12:00pm 29.3 ENE 12 16 1015.3 - 0.0 - - - - - - -
28/11:30am 28.4 ENE 12 15 1015.7 - 0.0 - - - - - - -
28/11:00am 28.1 NE 13 17 1016.1 - 0.0 - - - - - - -
28/10:30am 27.7 E 13 17 1016.0 - 0.0 - - - - - - -
28/10:00am 26.5 E 13 17 1016.3 - 0.0 - - - - - - -
28/09:30am 26.1 E 11 16 1016.4 - 0.0 - - - - - - -
28/09:00am 24.6 ESE 10 13 1016.3 - 0.0 - - - - - - -
28/08:30am 22.7 SE 5 6 1016.1 - 0.0 - - - - - - -
28/08:00am 20.8 SE 4 5 1016.0 - 0.0 - - - - - - -
28/07:30am 18.1 SE 4 5 1015.8 - 0.0 - - - - - - -
28/07:00am 17.3 SE 4 5 1015.5 - 0.0 - - - - - - -
28/06:30am 18.1 S 2 3 1015.4 - 0.0 - - - - - - -
28/06:00am 18.0 SSW 3 3 1015.2 - 0.0 - - - - - - -
28/05:30am 18.6 S 3 4 1014.8 - 0.0 - - - - - - -
28/05:00am 18.9 CALM 0 0 1014.7 - 0.0 - - - - - - -
28/04:30am 19.1 S 3 4 1014.6 - 0.0 - - - - - - -
28/04:00am 19.3 S 1 4 1014.6 - 0.0 - - - - - - -
28/03:30am 19.3 CALM 0 0 1014.5 - 0.0 - - - - - - -
28/03:00am 19.5 SSW 3 4 1014.7 - 0.0 - - - - - - -
28/02:30am 20.2 CALM 0 0 1014.8 - 0.0 - - - - - - -
28/02:00am 20.2 CALM 0 0 1015.0 - 0.0 - - - - - - -
28/01:30am 20.7 S 3 4 1015.4 - 0.0 - - - - - - -
28/01:00am 20.7 E 4 5 1015.6 - 0.0 - - - - - - -
28/12:30am 20.8 CALM 0 0 1015.7 - 0.0 - - - - - - -
28/12:00am 21.2 CALM 0 0 1015.5 - 0.0 - - - - - - -
 
Date/Time
CST
Temp

°C
Wind Pressure Rain
since 9am
mm
Weather Cloud Vis
km
Sea
Height
m
Swell
Dir
 
Speed
knots
Gust
knots
hPa Trend Height
m
Period
s
Dir
27/11:30pm 20.9 CALM 0 0 1015.6 - 0.0 - - - - - - -
27/11:00pm 20.7 CALM 0 0 1015.6 - 0.0 - - - - - - -
27/10:30pm 20.9 CALM 0 0 1015.5 - 0.0 - - - - - - -
27/10:00pm 21.3 CALM 0 0 1015.3 - 0.0 - - - - - - -
27/09:30pm 21.8 CALM 0 0 1015.1 - 0.0 - - - - - - -
27/09:00pm 22.7 CALM 0 0 1014.9 - 0.0 - - - - - - -
27/08:30pm 23.1 CALM 0 0 1014.7 - 0.0 - - - - - - -
27/08:00pm 23.5 CALM 0 3 1014.3 - 0.0 - - - - - - -
27/07:30pm 23.9 NNW 1 4 1013.8 - 0.0 - - - - - - -
27/07:00pm 24.9 N 3 4 1013.5 - 0.0 - - - - - - -
27/06:30pm 26.2 N 3 5 1013.2 - 0.0 - - - - - - -
27/06:00pm 27.3 NNW 4 7 1012.9 - 0.0 - - - - - - -
27/05:30pm 28.7 N 5 8 1012.6 - 0.0 - - - - - - -
27/05:00pm 28.9 N 6 9 1012.4 - 0.0 - - - - - - -
27/04:30pm 29.7 N 6 9 1012.5 - 0.0 - - - - - - -
27/04:00pm 30.3 NNW 6 9 1012.6 - 0.0 - - - - - - -
27/03:30pm 30.2 N 7 11 1012.6 - 0.0 - - - - - - -
27/03:00pm 31.0 N 6 9 1012.8 - 0.0 - - - - - - -
27/02:30pm 30.9 NNE 8 13 1013.2 - 0.0 - - - - - - -
27/02:00pm 30.2 NNE 7 12 1013.6 - 0.0 - - - - - - -
27/01:30pm 30.2 NNE 8 13 1014.1 - 0.0 - - - - - - -
27/01:00pm 30.0 NNE 8 13 1014.9 - 0.0 - - - - - - -
27/12:30pm 29.9 NE 8 13 1015.4 - 0.0 - - - - - - -
27/12:00pm 29.0 NE 9 13 1015.9 - 0.0 - - - - - - -
27/11:30am 28.8 E 9 14 1016.4 - 0.0 - - - - - - -
27/11:00am 28.4 E 10 14 1016.9 - 0.0 - - - - - - -
27/10:30am 27.9 ENE 10 14 1017.2 - 0.0 - - - - - - -
27/10:00am 27.4 E 10 14 1017.3 - 0.0 - - - - - - -
27/09:30am 26.4 ESE 8 12 1017.2 - 0.0 - - - - - - -
27/09:00am 24.8 ESE 9 11 1017.1 - 0.0 - - - - - - -
27/08:30am 22.4 SSE 4 6 1017.0 - 0.0 - - - - - - -
27/08:00am 20.3 W 2 4 1016.7 - 0.0 - - - - - - -
27/07:30am 19.1 CALM 0 0 1016.5 - 0.0 - - - - - - -
27/07:00am 19.3 SE 3 4 1016.3 - 0.0 - - - - - - -
27/06:30am 19.4 ESE 5 6 1016.0 - 0.0 - - - - - - -
27/06:00am 19.7 ESE 6 7 1015.6 - 0.0 - - - - - - -
27/05:30am 20.2 ESE 6 7 1015.4 - 0.0 - - - - - - -
27/05:00am 20.7 ESE 6 8 1015.4 - 0.0 - - - - - - -
27/04:30am 20.6 ESE 5 7 1015.2 - 0.0 - - - - - - -
27/04:00am 21.2 ESE 7 8 1015.2 - 0.0 - - - - - - -
27/03:30am 21.2 ESE 6 7 1015.4 - 0.0 - - - - - - -
27/03:00am 22.4 ESE 7 8 1015.6 - 0.0 - - - - - - -
27/02:30am 23.7 ESE 8 10 1015.9 - 0.0 - - - - - - -
27/02:00am 24.0 E 9 14 1016.3 - 0.0 - - - - - - -
27/01:30am 24.2 E 10 13 1016.6 - 0.0 - - - - - - -
27/01:00am 24.4 E 10 14 1016.8 - 0.0 - - - - - - -
27/12:30am 24.5 ENE 10 13 1017.0 - 0.0 - - - - - - -
27/12:00am 24.6 ENE 10 13 1017.1 - 0.0 - - - - - - -
 
Date/Time
CST
Temp

°C
Wind Pressure Rain
since 9am
mm
Weather Cloud Vis
km
Sea
Height
m
Swell
Dir
 
Speed
knots
Gust
knots
hPa Trend Height
m
Period
s
Dir
26/11:30pm 24.6 NE 10 13 1017.0 - 0.0 - - - - - - -
26/11:00pm 24.4 NNE 7 11 1016.9 - 0.0 - - - - - - -
26/10:30pm 24.2 NNE 5 7 1016.8 - 0.0 - - - - - - -
26/10:00pm 24.2 NNE 5 7 1016.6 - 0.0 - - - - - - -
26/09:30pm 24.7 NNE 6 8 1016.3 - 0.0 - - - - - - -
26/09:00pm 25.1 NNE 7 12 1016.3 - 0.0 - - - - - - -
26/08:30pm 25.4 NNE 7 11 1016.0 - 0.0 - - - - - - -
26/08:00pm 25.8 NNE 8 12 1015.8 - 0.0 - - - - - - -
26/07:30pm 26.0 NNE 8 14 1015.6 - 0.0 - - - - - - -
26/07:00pm 26.2 NNE 7 10 1015.2 - 0.0 - - - - - - -
26/06:30pm 26.7 N 4 8 1014.6 - 0.0 - - - - - - -

Other Formats:

Comma delimited format used in spreadsheet applications
http://www.bom.gov.au/fwo/IDD60701/IDD60701.94127.axf

JavaScript Object Notation format (JSON) in row-major order
http://www.bom.gov.au/fwo/IDD60701/IDD60701.94127.json